createdAt,value
2019-04-11T00:00:41.773Z,90.10
2019-04-11T00:03:13.944Z,88.60
2019-04-11T00:05:45.236Z,87.70
2019-04-11T00:08:15.653Z,87.20
2019-04-11T00:10:46.845Z,88.80
2019-04-11T00:13:23.916Z,87.80
2019-04-11T00:15:49.062Z,88.10
2019-04-11T00:18:20.769Z,88.30
2019-04-11T00:20:52.632Z,87.90
2019-04-11T00:23:23.894Z,88.10
2019-04-11T00:25:54.065Z,89.20
2019-04-11T00:28:24.408Z,89.10
2019-04-11T00:30:54.698Z,88.50
2019-04-11T00:33:26.555Z,87.80
2019-04-11T00:35:57.731Z,87.60
2019-04-11T00:38:27.928Z,89.10
2019-04-11T00:40:58.103Z,88.80
2019-04-11T00:43:35.846Z,90.00
2019-04-11T00:46:04.392Z,90.10
2019-04-11T00:48:35.531Z,90.50
2019-04-11T00:51:09.844Z,90.40
2019-04-11T00:53:40.395Z,90.50
2019-04-11T00:56:10.971Z,90.00
2019-04-11T00:58:41.520Z,90.50
2019-04-11T01:01:13.170Z,90.50
2019-04-11T01:03:43.392Z,89.60
2019-04-11T01:06:14.095Z,89.60
2019-04-11T01:08:44.459Z,90.00
2019-04-11T01:11:14.581Z,89.40
2019-04-11T01:13:50.850Z,88.90
2019-04-11T01:16:33.073Z,89.30
2019-04-11T01:19:05.254Z,90.30
2019-04-11T01:21:38.516Z,90.20
2019-04-11T01:24:09.289Z,89.30
2019-04-11T01:26:41.258Z,89.70
2019-04-11T01:29:13.336Z,89.60
2019-04-11T01:31:46.232Z,89.20
2019-04-11T01:34:16.523Z,88.80
2019-04-11T01:36:48.205Z,90.00
2019-04-11T01:39:29.428Z,89.40
2019-04-11T01:42:00.708Z,90.00
2019-04-11T01:44:32.672Z,90.10
2019-04-11T01:47:04.842Z,90.60
2019-04-11T01:49:36.479Z,90.10
2019-04-11T01:52:07.136Z,91.00
2019-04-11T01:54:43.868Z,91.20
2019-04-11T01:57:14.238Z,92.10
2019-04-11T01:59:45.793Z,92.70
2019-04-11T02:02:21.443Z,92.50
2019-04-11T02:04:56.482Z,91.80
2019-04-11T02:07:26.901Z,91.20
2019-04-11T02:09:57.103Z,91.00
2019-04-11T02:12:27.326Z,91.10
2019-04-11T02:14:57.739Z,90.60
2019-04-11T02:17:28.211Z,90.30
2019-04-11T02:19:58.666Z,90.20
2019-04-11T02:22:40.723Z,90.10
2019-04-11T02:25:16.424Z,91.20
2019-04-11T02:27:48.381Z,91.80
2019-04-11T02:30:22.216Z,92.20
2019-04-11T02:33:02.084Z,92.40
2019-04-11T02:35:32.636Z,91.90
2019-04-11T02:38:05.008Z,92.10
2019-04-11T02:40:36.642Z,92.10
2019-04-11T02:43:11.299Z,92.10
2019-04-11T02:45:52.575Z,92.30
2019-04-11T02:48:16.286Z,92.50
2019-04-11T02:50:47.914Z,92.60
2019-04-11T02:53:18.424Z,93.00
2019-04-11T02:55:49.732Z,93.00
2019-04-11T02:58:20.623Z,92.90
2019-04-11T03:00:55.966Z,92.60
2019-04-11T03:03:27.432Z,92.00
2019-04-11T03:05:59.646Z,91.40
2019-04-11T03:08:31.880Z,91.30
2019-04-11T03:11:01.873Z,91.10
2019-04-11T03:13:33.340Z,91.70
2019-04-11T03:16:23.857Z,91.50
2019-04-11T03:18:54.876Z,92.20
2019-04-11T03:21:14.596Z,92.00
2019-04-11T03:23:43.836Z,92.40
2019-04-11T03:26:14.214Z,92.40
2019-04-11T03:28:49.534Z,92.60
2019-04-11T03:32:13.615Z,92.40
2019-04-11T03:37:08.606Z,92.50
2019-04-11T03:39:15.500Z,92.70
2019-04-11T03:41:42.574Z,92.70
2019-04-11T03:44:07.844Z,92.90
2019-04-11T03:46:48.194Z,92.70
2019-04-11T03:49:16.407Z,92.40
2019-04-11T03:51:34.070Z,91.80
2019-04-11T03:54:05.302Z,91.80
2019-04-11T03:56:37.135Z,91.80
2019-04-11T03:59:16.375Z,92.10
2019-04-11T04:01:46.645Z,92.20
2019-04-11T04:04:19.446Z,92.20
2019-04-11T04:06:49.884Z,92.40
2019-04-11T04:09:20.895Z,92.90
2019-04-11T04:11:54.559Z,92.50
2019-04-11T04:14:29.625Z,92.70
2019-04-11T04:17:11.296Z,92.60
2019-04-11T04:23:07.639Z,92.70
2019-04-11T04:25:39.252Z,92.30
2019-04-11T04:28:11.856Z,92.20
2019-04-11T04:30:43.312Z,92.50
2019-04-11T04:33:16.876Z,92.30
2019-04-11T04:35:47.609Z,91.50
2019-04-11T04:38:20.608Z,92.00
2019-04-11T04:41:07.486Z,92.10
2019-04-11T04:43:25.163Z,92.10
2019-04-11T04:46:18.485Z,91.80
2019-04-11T04:48:38.075Z,91.80
2019-04-11T04:51:11.468Z,91.90
2019-04-11T04:53:42.935Z,92.20
2019-04-11T04:56:16.760Z,92.40
2019-04-11T04:58:46.728Z,92.70
2019-04-11T05:01:23.848Z,92.50
2019-04-11T05:04:04.721Z,92.80
2019-04-11T05:06:28.942Z,93.10
2019-04-11T05:09:00.256Z,93.50
2019-04-11T05:11:33.860Z,93.10
2019-04-11T05:14:05.076Z,93.60
2019-04-11T05:16:35.801Z,93.50
2019-04-11T05:19:08.926Z,93.50
2019-04-11T05:21:52.032Z,93.00
2019-04-11T05:24:22.929Z,92.90
2019-04-11T05:26:53.259Z,93.30
2019-04-11T05:29:27.087Z,93.40
2019-04-11T05:31:59.331Z,93.20
2019-04-11T05:34:33.063Z,92.80
2019-04-11T05:37:04.250Z,92.70
2019-04-11T05:39:34.421Z,92.70
2019-04-11T05:42:09.209Z,92.20
2019-04-11T05:44:48.659Z,91.60
2019-04-11T05:47:21.539Z,91.50
2019-04-11T05:49:59.088Z,91.80
2019-04-11T05:52:33.765Z,92.70
2019-04-11T05:55:08.262Z,93.10
2019-04-11T05:57:41.480Z,93.40
2019-04-11T06:00:21.411Z,93.30
2019-04-11T06:02:54.715Z,93.30
2019-04-11T06:05:32.394Z,93.00
2019-04-11T06:08:02.518Z,93.00
2019-04-11T06:10:34.018Z,92.80
2019-04-11T06:13:05.674Z,92.80
2019-04-11T06:15:40.821Z,92.60
2019-04-11T06:18:27.871Z,93.10
2019-04-11T06:21:11.875Z,92.60
2019-04-11T06:23:55.856Z,92.70
2019-04-11T06:26:40.621Z,92.40
2019-04-11T06:29:23.233Z,92.80
2019-04-11T06:32:13.839Z,92.90
2019-04-11T06:35:10.176Z,92.40
2019-04-11T06:37:43.738Z,92.80
2019-04-11T06:40:21.503Z,92.20
2019-04-11T06:43:01.443Z,92.00
2019-04-11T06:45:42.599Z,92.00
2019-04-11T06:48:15.969Z,91.90
2019-04-11T06:50:53.694Z,92.00
2019-04-11T06:53:25.918Z,91.90
2019-04-11T06:56:00.120Z,92.20
2019-04-11T06:58:31.825Z,91.80
2019-04-11T07:01:03.642Z,91.90
2019-04-11T07:03:36.258Z,92.10
2019-04-11T07:06:08.314Z,91.90
2019-04-11T07:08:40.599Z,91.80
2019-04-11T07:11:16.421Z,92.10
2019-04-11T07:13:48.368Z,91.90
2019-04-11T07:16:19.920Z,91.90
2019-04-11T07:18:58.440Z,92.00
2019-04-11T07:21:31.055Z,91.70
2019-04-11T07:24:20.316Z,91.70
2019-04-11T07:26:52.491Z,91.60
2019-04-11T07:29:34.265Z,91.60
2019-04-11T07:32:13.555Z,91.20
2019-04-11T07:34:54.385Z,90.90
2019-04-11T07:37:30.256Z,90.90
2019-04-11T07:40:15.676Z,90.30
2019-04-11T07:43:01.620Z,90.20
2019-04-11T07:45:37.687Z,90.20
2019-04-11T07:48:10.853Z,91.10
2019-04-11T07:50:42.185Z,90.90
2019-04-11T07:53:14.598Z,90.40
2019-04-11T07:55:46.514Z,90.10
2019-04-11T07:58:21.524Z,90.60
2019-04-11T08:01:03.748Z,90.80
2019-04-11T08:03:41.627Z,90.50
2019-04-11T08:06:13.492Z,89.50
2019-04-11T08:08:49.323Z,90.50
2019-04-11T08:11:21.193Z,90.50
2019-04-11T08:13:56.570Z,91.10
2019-04-11T08:16:44.965Z,90.40
2019-04-11T08:19:35.298Z,91.20
2019-04-11T08:22:08.424Z,90.90
2019-04-11T08:24:56.767Z,90.80
2019-04-11T08:27:28.899Z,90.70
2019-04-11T08:30:00.792Z,90.30
2019-04-11T08:32:38.487Z,91.00
2019-04-11T08:35:28.354Z,91.30
2019-04-11T08:38:12.238Z,90.60
2019-04-11T08:40:47.846Z,91.10
2019-04-11T08:43:37.419Z,91.10
2019-04-11T08:46:12.870Z,91.10
2019-04-11T08:48:45.648Z,90.80
2019-04-11T08:51:19.044Z,90.90
2019-04-11T08:53:51.124Z,90.60
2019-04-11T08:56:27.983Z,90.90
2019-04-11T08:59:09.852Z,91.40
2019-04-11T09:01:42.281Z,90.60
2019-04-11T09:04:30.827Z,91.10
2019-04-11T09:07:01.404Z,91.20
2019-04-11T09:09:49.951Z,91.80
2019-04-11T09:12:20.563Z,91.10
2019-04-11T09:17:56.605Z,91.50
2019-04-11T09:20:27.661Z,91.30
2019-04-11T09:22:59.538Z,90.80
2019-04-11T09:25:51.317Z,91.00
2019-04-11T09:28:21.774Z,90.70
2019-04-11T09:30:57.984Z,90.40
2019-04-11T09:33:30.943Z,90.50
2019-04-11T09:36:55.911Z,90.50
2019-04-11T09:39:35.777Z,91.00
2019-04-11T09:42:10.021Z,90.90
2019-04-11T09:44:49.085Z,90.10
2019-04-11T09:47:38.359Z,89.50
2019-04-11T09:50:26.935Z,89.70
2019-04-11T09:52:58.798Z,90.10
2019-04-11T09:55:39.602Z,88.70
2019-04-11T09:58:25.218Z,87.10
2019-04-11T10:01:14.502Z,89.00
2019-04-11T10:04:01.900Z,87.50
2019-04-11T10:06:49.101Z,87.60
2019-04-11T10:09:21.948Z,90.00
2019-04-11T10:12:10.150Z,89.70
2019-04-11T10:14:41.887Z,88.70
2019-04-11T10:17:24.634Z,88.00
2019-04-11T10:19:56.016Z,88.10
2019-04-11T10:22:29.174Z,87.90
2019-04-11T10:25:14.860Z,88.20
2019-04-11T10:27:48.948Z,87.60
2019-04-11T10:30:37.698Z,87.80
2019-04-11T10:33:16.980Z,87.50
2019-04-11T10:36:07.064Z,87.60
2019-04-11T10:38:40.422Z,90.10
2019-04-11T10:41:22.940Z,87.20
2019-04-11T10:43:54.752Z,88.10
2019-04-11T10:46:51.481Z,87.50
2019-04-11T10:49:32.889Z,85.60
2019-04-11T10:52:12.015Z,87.40
2019-04-11T10:54:43.242Z,87.10
2019-04-11T10:57:18.062Z,87.10
2019-04-11T10:59:52.407Z,84.70
2019-04-11T11:02:35.725Z,86.70
2019-04-11T11:05:07.361Z,82.70
2019-04-11T11:07:37.675Z,85.00
2019-04-11T11:10:11.150Z,85.10
2019-04-11T11:12:43.545Z,83.90
2019-04-11T11:15:16.185Z,83.40
2019-04-11T11:18:36.226Z,82.00
2019-04-11T11:20:45.659Z,83.50
2019-04-11T11:23:39.239Z,84.40
2019-04-11T11:26:14.500Z,84.20
2019-04-11T11:29:07.125Z,82.90
2019-04-11T11:31:40.835Z,83.60
2019-04-11T11:34:19.455Z,82.20
2019-04-11T11:36:54.927Z,81.10
2019-04-11T11:39:31.099Z,82.50
2019-04-11T11:49:55.547Z,80.20
2019-04-11T11:52:24.786Z,78.90
2019-04-11T11:54:55.723Z,79.20
2019-04-11T12:00:57.408Z,79.50
2019-04-11T12:03:33.068Z,77.10
2019-04-11T12:06:07.256Z,77.90
2019-04-11T12:08:56.174Z,78.80
2019-04-11T12:11:26.400Z,78.40
2019-04-11T12:13:58.186Z,77.90
2019-04-11T12:16:36.347Z,77.30
2019-04-11T12:19:08.808Z,77.10
2019-04-11T12:21:39.168Z,75.20
2019-04-11T12:24:14.025Z,78.30
2019-04-11T12:26:47.292Z,79.00
2019-04-11T12:29:18.642Z,79.20
2019-04-11T12:31:52.315Z,78.00
2019-04-11T12:34:38.693Z,79.90
2019-04-11T12:37:10.568Z,78.00
2019-04-11T12:39:48.433Z,78.80
2019-04-11T12:42:20.191Z,78.80
2019-04-11T12:45:08.710Z,77.60
2019-04-11T12:47:41.072Z,79.10
2019-04-11T12:50:19.523Z,78.70
2019-04-11T12:52:54.190Z,76.90
2019-04-11T12:55:31.742Z,77.50
2019-04-11T12:58:09.553Z,78.40
2019-04-11T13:00:57.923Z,76.20
2019-04-11T13:03:30.126Z,78.50
2019-04-11T13:06:07.849Z,76.20
2019-04-11T13:08:39.600Z,77.80
2019-04-11T13:11:12.059Z,76.40
2019-04-11T13:13:54.561Z,77.40
2019-04-11T13:16:26.422Z,75.60
2019-04-11T13:19:07.408Z,77.00
2019-04-11T13:21:39.181Z,75.50
2019-04-11T13:24:11.029Z,74.50
2019-04-11T13:27:03.380Z,73.30
2019-04-11T13:29:44.186Z,74.40
2019-04-11T13:32:34.425Z,73.70
2019-04-11T13:35:23.988Z,71.20
2019-04-11T13:38:08.030Z,72.70
2019-04-11T13:40:45.657Z,72.80
2019-04-11T13:43:26.482Z,73.80
2019-04-11T13:46:14.903Z,72.70
2019-04-11T13:48:54.376Z,71.10
2019-04-11T13:51:33.919Z,72.00
2019-04-11T13:54:24.375Z,72.50
2019-04-11T13:57:27.395Z,73.20
2019-04-11T14:00:15.640Z,72.70
2019-04-11T14:03:07.469Z,73.30
2019-04-11T14:05:46.297Z,73.80
2019-04-11T14:08:18.154Z,74.40
2019-04-11T14:11:02.711Z,72.00
2019-04-11T14:13:35.231Z,70.30
2019-04-11T14:19:20.962Z,72.30
2019-04-11T14:21:54.263Z,71.80
2019-04-11T14:24:28.035Z,71.60
2019-04-11T14:26:59.967Z,71.10
2019-04-11T14:29:48.176Z,70.90
2019-04-11T14:32:23.199Z,70.30
2019-04-11T14:35:02.637Z,70.20
2019-04-11T14:37:39.035Z,69.70
2019-04-11T14:40:17.781Z,70.50
2019-04-11T14:43:05.843Z,70.40
2019-04-11T14:45:55.942Z,69.10
2019-04-11T14:48:30.843Z,70.70
2019-04-11T14:51:04.894Z,68.90
2019-04-11T14:53:55.252Z,70.40
2019-04-11T14:56:30.090Z,71.10
2019-04-11T14:59:05.087Z,70.00
2019-04-11T15:01:35.514Z,71.40
2019-04-11T15:04:26.113Z,71.50
2019-04-11T15:07:04.000Z,72.00
2019-04-11T15:09:47.848Z,73.10
2019-04-11T15:12:22.727Z,73.50
2019-04-11T15:15:00.729Z,75.00
2019-04-11T15:17:38.959Z,74.90
2019-04-11T15:20:23.789Z,77.20
2019-04-11T15:23:01.876Z,76.90
2019-04-11T15:25:41.319Z,77.00
2019-04-11T15:28:29.762Z,78.10
2019-04-11T15:31:18.834Z,80.80
2019-04-11T15:33:59.594Z,81.30
2019-04-11T15:36:30.941Z,82.40
2019-04-11T15:39:19.390Z,82.90
2019-04-11T15:41:57.250Z,82.00
2019-04-11T15:44:43.733Z,82.40
2019-04-11T15:47:18.697Z,82.30
2019-04-11T15:50:05.028Z,83.40
2019-04-11T15:52:37.589Z,81.80
2019-04-11T15:55:37.522Z,82.80
2019-04-11T15:58:06.724Z,82.40
2019-04-11T16:00:44.521Z,81.80
2019-04-11T16:03:14.813Z,83.30
2019-04-11T16:05:52.443Z,83.10
2019-04-11T16:08:30.142Z,82.00
2019-04-11T16:11:05.084Z,82.70
2019-04-11T16:13:49.217Z,81.70
2019-04-11T16:16:21.438Z,81.20
2019-04-11T16:19:05.486Z,81.60
2019-04-11T16:21:39.872Z,81.70
2019-04-11T16:24:22.519Z,81.80
2019-04-11T16:27:03.534Z,82.50
2019-04-11T16:29:38.661Z,83.40
2019-04-11T16:32:09.311Z,83.50
2019-04-11T16:34:55.771Z,83.30
2019-04-11T16:37:25.624Z,84.00
2019-04-11T16:40:14.247Z,83.80
2019-04-11T16:42:45.783Z,83.50
2019-04-11T16:45:35.445Z,83.20
2019-04-11T16:48:05.675Z,84.50
2019-04-11T16:50:40.269Z,84.80
2019-04-11T16:53:12.063Z,84.70
2019-04-11T16:55:43.452Z,85.70
2019-04-11T16:58:31.559Z,84.60
2019-04-11T17:01:03.937Z,84.60
2019-04-11T17:03:34.159Z,84.30
2019-04-11T17:06:07.698Z,84.90
2019-04-11T17:08:44.783Z,85.20
2019-04-11T17:11:19.138Z,84.80
2019-04-11T17:13:57.387Z,83.80
2019-04-11T17:16:31.063Z,83.60
2019-04-11T17:19:04.968Z,83.30
2019-04-11T17:25:00.525Z,82.90
2019-04-11T17:27:32.733Z,82.60
2019-04-11T17:30:03.018Z,81.70
2019-04-11T17:32:33.245Z,82.70
2019-04-11T17:35:03.719Z,82.80
2019-04-11T17:37:36.759Z,83.00
2019-04-11T17:40:07.713Z,82.60
2019-04-11T17:42:55.240Z,82.90
2019-04-11T17:45:25.618Z,83.10
2019-04-11T17:47:57.298Z,83.80
2019-04-11T17:50:28.353Z,84.10
2019-04-11T17:52:58.442Z,84.60
2019-04-11T17:55:29.770Z,83.90
2019-04-11T17:58:03.021Z,84.30
2019-04-11T18:00:40.611Z,84.00
2019-04-11T18:03:13.876Z,83.20
2019-04-11T18:05:47.702Z,84.50
2019-04-11T18:08:20.188Z,83.90
2019-04-11T18:10:50.389Z,84.40
2019-04-11T18:13:24.819Z,83.50
2019-04-11T18:15:55.473Z,83.80
2019-04-11T18:18:26.626Z,83.90
2019-04-11T18:21:17.541Z,84.10
2019-04-11T18:24:01.039Z,84.20
2019-04-11T18:26:33.115Z,83.10
2019-04-11T18:29:03.306Z,82.90
2019-04-11T18:31:36.631Z,83.90
2019-04-11T18:34:08.088Z,83.40
2019-04-11T18:36:38.194Z,82.50
2019-04-11T18:39:08.515Z,83.00
2019-04-11T18:41:38.863Z,82.40
2019-04-11T18:44:09.833Z,83.10
2019-04-11T18:46:40.135Z,82.80
2019-04-11T18:49:10.554Z,82.50
2019-04-11T18:51:53.654Z,81.60
2019-04-11T18:54:26.837Z,82.60
2019-04-11T18:56:58.176Z,82.70
2019-04-11T18:59:28.354Z,83.60
2019-04-11T19:02:00.288Z,83.80
2019-04-11T19:04:32.711Z,83.10
2019-04-11T19:07:05.015Z,83.80
2019-04-11T19:09:35.424Z,84.20
2019-04-11T19:12:06.654Z,83.90
2019-04-11T19:14:36.733Z,85.90
2019-04-11T19:17:06.963Z,85.00
2019-04-11T19:19:37.104Z,84.90
2019-04-11T19:22:07.615Z,85.00
2019-04-11T19:24:41.664Z,85.10
2019-04-11T19:27:09.670Z,85.00
2019-04-11T19:29:43.184Z,85.20
2019-04-11T19:32:15.839Z,84.20
2019-04-11T19:34:47.519Z,85.90
2019-04-11T19:37:17.768Z,86.10
2019-04-11T19:39:48.741Z,85.60
2019-04-11T19:42:19.797Z,86.50
2019-04-11T19:44:50.375Z,86.60
2019-04-11T19:47:22.379Z,86.90
2019-04-11T19:49:53.711Z,87.50
2019-04-11T19:52:23.944Z,87.00
2019-04-11T19:54:55.720Z,86.70
2019-04-11T19:57:25.914Z,86.70
2019-04-11T19:59:58.152Z,86.20
2019-04-11T20:02:28.514Z,86.70
2019-04-11T20:04:58.647Z,87.00
2019-04-11T20:07:28.904Z,86.70
2019-04-11T20:10:04.879Z,87.10
2019-04-11T20:12:40.879Z,86.70
2019-04-11T20:15:11.158Z,86.80
2019-04-11T20:17:44.586Z,87.30
2019-04-11T20:20:13.295Z,87.20
2019-04-11T20:22:44.065Z,87.00
2019-04-11T20:25:16.305Z,86.00
2019-04-11T20:27:48.098Z,85.50
2019-04-11T20:30:19.415Z,85.20
2019-04-11T20:32:49.786Z,85.00
2019-04-11T20:35:28.481Z,84.60
2019-04-11T20:37:54.099Z,85.40
2019-04-11T20:40:23.308Z,85.20
2019-04-11T20:42:54.416Z,85.20
2019-04-11T20:45:28.519Z,85.90
2019-04-11T20:48:02.939Z,85.20
2019-04-11T20:50:34.758Z,84.70
2019-04-11T20:53:13.167Z,84.90
2019-04-11T20:55:41.011Z,84.90
2019-04-11T20:58:13.484Z,84.80
2019-04-11T21:00:50.700Z,84.50
2019-04-11T21:03:16.852Z,84.30
2019-04-11T21:05:47.136Z,84.60
2019-04-11T21:08:20.150Z,84.90
2019-04-11T21:10:51.995Z,85.20
2019-04-11T21:13:22.442Z,86.20
2019-04-11T21:15:54.887Z,86.00
2019-04-11T21:18:26.360Z,85.00
2019-04-11T21:20:56.496Z,86.50
2019-04-11T21:23:29.403Z,86.70
2019-04-11T21:26:06.042Z,86.10
2019-04-11T21:28:36.689Z,86.70
2019-04-11T21:31:10.189Z,87.30
2019-04-11T21:33:39.391Z,86.70
2019-04-11T21:36:09.723Z,86.00
2019-04-11T21:38:40.016Z,86.90
2019-04-11T21:41:13.565Z,87.10
2019-04-11T21:43:46.741Z,87.50
2019-04-11T21:46:18.666Z,87.90
2019-04-11T21:48:48.875Z,87.60
2019-04-11T21:51:18.931Z,87.80
2019-04-11T21:53:49.053Z,88.60
2019-04-11T21:56:19.405Z,89.00
2019-04-11T21:58:50.117Z,89.00
2019-04-11T22:01:24.874Z,89.90
2019-04-11T22:03:57.936Z,90.00
2019-04-11T22:06:36.128Z,89.60
2019-04-11T22:09:12.230Z,90.10
2019-04-11T22:11:42.604Z,89.70
2019-04-11T22:14:13.391Z,90.40
2019-04-11T22:16:50.882Z,90.40
2019-04-11T22:19:21.011Z,90.20
2019-04-11T22:22:05.148Z,90.40
2019-04-11T22:24:38.452Z,90.20
2019-04-11T22:27:08.773Z,90.50
2019-04-11T22:29:39.891Z,90.10
2019-04-11T22:32:14.735Z,90.20
2019-04-11T22:34:50.501Z,90.20
2019-04-11T22:37:22.198Z,90.30
2019-04-11T22:39:52.261Z,90.40
2019-04-11T22:42:23.516Z,90.00
2019-04-11T22:44:55.471Z,89.60
2019-04-11T22:47:28.564Z,89.30
2019-04-11T22:50:04.232Z,89.80
2019-04-11T22:52:54.167Z,89.10
2019-04-11T22:55:28.983Z,89.90
2019-04-11T22:58:04.280Z,90.00
2019-04-11T23:00:37.745Z,90.50
2019-04-11T23:03:10.285Z,90.20
2019-04-11T23:05:46.978Z,90.60
2019-04-11T23:08:21.012Z,90.80
2019-04-11T23:10:56.488Z,90.10
2019-04-11T23:16:17.500Z,90.30
2019-04-11T23:18:47.558Z,90.70
2019-04-11T23:21:17.627Z,90.50
2019-04-11T23:23:47.849Z,90.90
2019-04-11T23:26:18.007Z,90.50
2019-04-11T23:28:48.223Z,90.40
2019-04-11T23:31:20.290Z,90.20
2019-04-11T23:33:51.973Z,89.90
2019-04-11T23:36:21.962Z,90.40
2019-04-11T23:38:53.819Z,90.20
2019-04-11T23:41:25.563Z,90.00
2019-04-11T23:43:55.821Z,90.20
2019-04-11T23:46:25.944Z,89.80
2019-04-11T23:48:56.099Z,89.20
2019-04-11T23:51:26.507Z,88.80
2019-04-11T23:53:58.857Z,88.70
2019-04-11T23:56:30.761Z,88.40
2019-04-11T23:59:02.744Z,88.50
